WXM80 ListenWXM80 Stop

You find our weather info also at:

UK Metoffice

WeatherCloud

Weather Underground

Northeastern Weather Network

AWEKAS

Citizen Weather Observer Program (CWOP)

HAMweather, WeatherForYou, PWS Weather


Weather Underground History page Text

Daily Summary for February 12, 2016 Units:  English    Metric   Both
« Previous Day
Next Day »
Daily Weekly Monthly Yearly Custom
  High: Low: Average:
Temperature: 28.7 °F 16.6 °F 22.1 °F
Dew Point: 14.8 °F 5.2 °F 9 °F
Humidity: 69 % 40 % 57 %
Wind Speed: 10.9 mph 0.0 mph 3.9 mph
Wind Gust: 19.0 mph - -
Wind:- - WSW
Pressure: 30.25 in 29.90 in -
Precipitation: 0.00 in    
Historical Graphs
 
 
Tabular Data for February 12, 2016
Time Temperature Dew Point Pressure Wind Wind Speed Wind Gust Humidity Rainfall Rate (Hourly)
00:04 18.5 °F 5.4 °F 30.17 in NNW 8.8 mph 12.7 mph 56 % 0.00 in
00:09 18.5 °F 5.4 °F 30.17 in WNW 6.1 mph 13.8 mph 56 % 0.00 in
00:14 18.4 °F 5.7 °F 30.17 in West 8.3 mph 17.3 mph 57 % 0.00 in
00:19 18.3 °F 5.2 °F 30.18 in WNW 5.9 mph 17.0 mph 56 % 0.00 in
00:24 18.3 °F 6.0 °F 30.17 in WNW 5.9 mph 11.5 mph 58 % 0.00 in
00:29 18.3 °F 5.6 °F 30.18 in NW 3.1 mph 11.5 mph 57 % 0.00 in
00:34 18.3 °F 5.6 °F 30.19 in NW 2.9 mph 9.2 mph 57 % 0.00 in
00:39 18.2 °F 5.9 °F 30.18 in WNW 7.5 mph 11.5 mph 58 % 0.00 in
00:44 18.2 °F 5.9 °F 30.18 in WNW 6.6 mph 15.0 mph 58 % 0.00 in
00:49 18.1 °F 5.4 °F 30.19 in NNW 6.8 mph 16.1 mph 57 % 0.00 in
00:55 18.1 °F 5.8 °F 30.18 in WNW 5.1 mph 11.5 mph 58 % 0.00 in
01:00 18.0 °F 5.3 °F 30.19 in West 9.4 mph 17.3 mph 57 % 0.00 in
01:05 18.0 °F 5.7 °F 30.19 in NW 8.8 mph 19.0 mph 58 % 0.00 in
01:10 18.0 °F 5.7 °F 30.19 in WNW 5.8 mph 16.1 mph 58 % 0.00 in
01:15 17.9 °F 6.0 °F 30.18 in NW 7.9 mph 11.5 mph 59 % 0.00 in
01:20 17.9 °F 5.6 °F 30.18 in West 9.0 mph 13.8 mph 58 % 0.00 in
01:25 17.9 °F 5.6 °F 30.19 in WNW 7.9 mph 15.0 mph 58 % 0.00 in
01:30 17.9 °F 5.6 °F 30.19 in WNW 3.5 mph 13.0 mph 58 % 0.00 in
01:35 17.8 °F 5.5 °F 30.20 in West 10.9 mph 18.4 mph 58 % 0.00 in
01:40 17.7 °F 5.4 °F 30.20 in NW 3.6 mph 13.8 mph 58 % 0.00 in
01:46 17.7 °F 5.4 °F 30.21 in West 6.9 mph 11.5 mph 58 % 0.00 in
01:51 17.7 °F 5.8 °F 30.21 in WNW 6.9 mph 13.8 mph 59 % 0.00 in
01:56 17.7 °F 5.8 °F 30.20 in WNW 5.3 mph 8.1 mph 59 % 0.00 in
02:01 17.7 °F 5.8 °F 30.20 in WNW 8.0 mph 13.8 mph 59 % 0.00 in
02:06 17.7 °F 6.2 °F 30.20 in WSW 4.5 mph 6.9 mph 60 % 0.00 in
02:11 17.7 °F 5.8 °F 30.20 in WNW 5.1 mph 11.5 mph 59 % 0.00 in
02:16 17.7 °F 6.2 °F 30.20 in NW 7.7 mph 13.0 mph 60 % 0.00 in
02:21 17.7 °F 6.2 °F 30.20 in WNW 5.0 mph 10.4 mph 60 % 0.00 in
02:26 17.6 °F 5.7 °F 30.20 in NNW 6.1 mph 11.5 mph 59 % 0.00 in
02:31 17.6 °F 5.7 °F 30.20 in WNW 9.0 mph 12.7 mph 59 % 0.00 in
02:37 17.5 °F 5.6 °F 30.20 in West 4.2 mph 15.0 mph 59 % 0.00 in
02:42 17.5 °F 6.0 °F 30.20 in NW 6.8 mph 11.5 mph 60 % 0.00 in
02:47 17.5 °F 6.0 °F 30.20 in West 5.3 mph 9.2 mph 60 % 0.00 in
02:52 17.4 °F 5.9 °F 30.20 in WNW 6.8 mph 11.5 mph 60 % 0.00 in
03:02 17.3 °F 5.8 °F 30.21 in WNW 7.8 mph 15.0 mph 60 % 0.00 in
03:07 17.2 °F 6.0 °F 30.21 in West 3.2 mph 11.0 mph 61 % 0.00 in
03:12 17.3 °F 6.1 °F 30.21 in WNW 5.7 mph 10.4 mph 61 % 0.00 in
03:17 17.2 °F 6.0 °F 30.21 in WNW 9.4 mph 17.3 mph 61 % 0.00 in
03:22 17.2 °F 5.7 °F 30.21 in West 5.4 mph 11.5 mph 60 % 0.00 in
03:28 17.1 °F 5.9 °F 30.21 in WSW 5.8 mph 12.7 mph 61 % 0.00 in
03:33 17.1 °F 5.9 °F 30.20 in NW 6.1 mph 10.4 mph 61 % 0.00 in
03:38 17.0 °F 5.5 °F 30.20 in WNW 6.4 mph 15.0 mph 60 % 0.00 in
03:48 17.1 °F 6.3 °F 30.21 in WNW 6.6 mph 11.5 mph 62 % 0.00 in
03:53 17.0 °F 5.9 °F 30.21 in WNW 4.6 mph 8.1 mph 61 % 0.00 in
03:58 16.9 °F 5.8 °F 30.21 in NW 4.3 mph 6.0 mph 61 % 0.00 in
04:03 16.9 °F 5.4 °F 30.21 in WSW 4.9 mph 10.4 mph 60 % 0.00 in
04:08 16.8 °F 5.7 °F 30.21 in NW 7.3 mph 7.3 mph 61 % 0.00 in
04:13 16.8 °F 5.3 °F 30.21 in West 4.3 mph 10.4 mph 60 % 0.00 in
04:19 16.8 °F 6.4 °F 30.21 in WNW 5.4 mph 12.7 mph 63 % 0.00 in
04:24 16.8 °F 6.0 °F 30.22 in WSW 6.3 mph 12.7 mph 62 % 0.00 in
04:29 16.8 °F 5.7 °F 30.22 in West 7.0 mph 10.4 mph 61 % 0.00 in
04:34 16.8 °F 6.0 °F 30.22 in WNW 5.0 mph 11.0 mph 62 % 0.00 in
04:39 16.8 °F 6.0 °F 30.22 in West 4.9 mph 10.4 mph 62 % 0.00 in
04:44 16.8 °F 6.0 °F 30.22 in WSW 5.0 mph 10.0 mph 62 % 0.00 in
04:49 16.8 °F 6.0 °F 30.22 in NW 5.2 mph 11.5 mph 62 % 0.00 in
04:54 16.7 °F 5.9 °F 30.22 in NW 2.5 mph 6.9 mph 62 % 0.00 in
04:59 16.7 °F 5.9 °F 30.23 in WNW 6.2 mph 15.0 mph 62 % 0.00 in
05:04 16.7 °F 5.6 °F 30.23 in West 4.4 mph 8.1 mph 61 % 0.00 in
05:10 16.7 °F 5.6 °F 30.23 in NW 5.6 mph 13.8 mph 61 % 0.00 in
05:15 16.7 °F 5.6 °F 30.23 in West 6.4 mph 8.1 mph 61 % 0.00 in
05:20 16.7 °F 5.9 °F 30.23 in WSW 5.3 mph 9.2 mph 62 % 0.00 in
05:25 16.7 °F 5.9 °F 30.23 in WSW 7.0 mph 11.5 mph 62 % 0.00 in
05:30 16.8 °F 5.7 °F 30.24 in WNW 4.9 mph 9.2 mph 61 % 0.00 in
05:35 16.7 °F 5.6 °F 30.23 in West 5.6 mph 11.5 mph 61 % 0.00 in
05:40 16.7 °F 5.9 °F 30.23 in WNW 6.0 mph 12.7 mph 62 % 0.00 in
05:45 16.7 °F 5.9 °F 30.23 in WNW 2.1 mph 3.5 mph 62 % 0.00 in
05:50 16.7 °F 5.9 °F 30.24 in NW 8.8 mph 16.1 mph 62 % 0.00 in
05:55 16.7 °F 5.9 °F 30.23 in WNW 7.4 mph 14.0 mph 62 % 0.00 in
06:01 16.7 °F 5.9 °F 30.24 in NW 4.6 mph 11.5 mph 62 % 0.00 in
06:06 16.6 °F 5.8 °F 30.24 in WNW 6.3 mph 10.4 mph 62 % 0.00 in
06:11 16.7 °F 6.3 °F 30.24 in NW 3.3 mph 9.2 mph 63 % 0.00 in
06:16 16.7 °F 6.6 °F 30.24 in WSW 3.9 mph 8.1 mph 64 % 0.00 in
06:21 16.7 °F 6.6 °F 30.24 in NW 4.4 mph 6.9 mph 64 % 0.00 in
06:26 16.7 °F 6.3 °F 30.23 in NW 4.5 mph 9.2 mph 63 % 0.00 in
06:31 16.7 °F 6.6 °F 30.23 in West 4.3 mph 8.1 mph 64 % 0.00 in
06:41 16.7 °F 6.3 °F 30.23 in West 8.9 mph 17.0 mph 63 % 0.00 in
06:46 16.7 °F 6.3 °F 30.23 in West 4.4 mph 10.4 mph 63 % 0.00 in
06:52 16.7 °F 6.6 °F 30.23 in NW 4.9 mph 11.5 mph 64 % 0.00 in
06:57 16.7 °F 6.6 °F 30.23 in NW 5.6 mph 9.2 mph 64 % 0.00 in
07:02 16.7 °F 7.0 °F 30.24 in NW 3.5 mph 6.9 mph 65 % 0.00 in
07:07 16.7 °F 7.0 °F 30.24 in NW 2.8 mph 9.2 mph 65 % 0.00 in
07:12 16.7 °F 6.6 °F 30.24 in WNW 3.4 mph 6.9 mph 64 % 0.00 in
07:17 16.8 °F 6.7 °F 30.24 in West 3.8 mph 4.6 mph 64 % 0.00 in
07:22 16.9 °F 7.2 °F 30.24 in West 5.9 mph 10.4 mph 65 % 0.00 in
07:27 17.0 °F 6.9 °F 30.24 in WNW 4.2 mph 6.9 mph 64 % 0.00 in
07:32 17.0 °F 6.9 °F 30.24 in West 5.5 mph 9.2 mph 64 % 0.00 in
07:37 17.1 °F 7.0 °F 30.24 in NW 1.5 mph 3.5 mph 64 % 0.00 in
07:43 17.2 °F 7.4 °F 30.24 in WNW 1.7 mph 4.6 mph 65 % 0.00 in
07:48 17.3 °F 7.5 °F 30.24 in West 3.9 mph 9.2 mph 65 % 0.00 in
07:53 17.4 °F 7.3 °F 30.24 in NW 2.7 mph 4.6 mph 64 % 0.00 in
07:58 17.5 °F 7.4 °F 30.24 in WSW 2.1 mph 3.5 mph 64 % 0.00 in
08:03 17.6 °F 7.5 °F 30.24 in WSW 4.3 mph 8.1 mph 64 % 0.00 in
08:08 17.8 °F 7.7 °F 30.25 in WSW 2.9 mph 5.8 mph 64 % 0.00 in
08:13 18.0 °F 7.5 °F 30.25 in West 6.6 mph 8.0 mph 63 % 0.00 in
08:18 18.2 °F 7.7 °F 30.25 in SSW 0.9 mph 4.6 mph 63 % 0.00 in
08:23 18.6 °F 7.7 °F 30.24 in WSW 4.1 mph 8.1 mph 62 % 0.00 in
08:28 18.8 °F 7.9 °F 30.24 in WSW 6.0 mph 9.2 mph 62 % 0.00 in
08:34 19.1 °F 8.2 °F 30.24 in WSW 2.8 mph 6.9 mph 62 % 0.00 in
08:39 19.4 °F 8.5 °F 30.24 in SSW 2.3 mph 5.8 mph 62 % 0.00 in
08:44 19.7 °F 8.4 °F 30.24 in WSW 3.1 mph 7.0 mph 61 % 0.00 in
08:49 20.1 °F 8.4 °F 30.25 in West 4.8 mph 8.1 mph 60 % 0.00 in
08:54 20.5 °F 8.8 °F 30.25 in West 4.2 mph 8.0 mph 60 % 0.00 in
08:59 21.0 °F 8.9 °F 30.25 in WSW 4.0 mph 5.0 mph 59 % 0.00 in
09:04 21.4 °F 8.9 °F 30.25 in West 4.6 mph 8.0 mph 58 % 0.00 in
09:09 21.7 °F 8.8 °F 30.24 in SW 6.8 mph 11.5 mph 57 % 0.00 in
09:14 22.0 °F 8.7 °F 30.24 in West 7.5 mph 10.4 mph 56 % 0.00 in
09:25 22.8 °F 9.4 °F 30.23 in SW 3.7 mph 5.8 mph 56 % 0.00 in
09:30 22.9 °F 9.1 °F 30.23 in WNW 4.3 mph 6.9 mph 55 % 0.00 in
09:35 22.8 °F 9.0 °F 30.23 in WSW 7.2 mph 10.4 mph 55 % 0.00 in
09:40 22.9 °F 9.5 °F 30.22 in SSW 4.4 mph 7.0 mph 56 % 0.00 in
09:45 23.3 °F 9.9 °F 30.23 in WSW 4.1 mph 6.0 mph 56 % 0.00 in
09:50 23.9 °F 10.1 °F 30.23 in SW 3.7 mph 8.0 mph 55 % 0.00 in
09:55 24.2 °F 9.5 °F 30.22 in WSW 2.9 mph 5.8 mph 53 % 0.00 in
10:05 24.4 °F 10.1 °F 30.22 in WSW 5.0 mph 9.2 mph 54 % 0.00 in
10:10 24.6 °F 9.5 °F 30.22 in WSW 6.7 mph 8.1 mph 52 % 0.00 in
10:16 25.0 °F 10.3 °F 30.22 in SW 3.9 mph 5.8 mph 53 % 0.00 in
10:21 25.1 °F 9.5 °F 30.21 in WSW 3.9 mph 6.9 mph 51 % 0.00 in
10:26 25.3 °F 9.7 °F 30.21 in SW 5.6 mph 8.0 mph 51 % 0.00 in
10:31 25.4 °F 9.3 °F 30.21 in WSW 4.4 mph 6.9 mph 50 % 0.00 in
10:36 25.8 °F 10.1 °F 30.21 in SW 3.5 mph 6.9 mph 51 % 0.00 in
10:41 25.9 °F 9.3 °F 30.21 in SW 6.2 mph 8.1 mph 49 % 0.00 in
10:46 26.2 °F 10.1 °F 30.21 in WSW 4.5 mph 6.9 mph 50 % 0.00 in
10:51 26.4 °F 9.8 °F 30.20 in West 2.7 mph 4.6 mph 49 % 0.00 in
10:56 26.9 °F 10.3 °F 30.20 in West 3.7 mph 6.9 mph 49 % 0.00 in
11:02 27.5 °F 10.8 °F 30.20 in SW 5.9 mph 8.1 mph 49 % 0.00 in
11:07 27.7 °F 10.5 °F 30.19 in SSW 3.8 mph 5.8 mph 48 % 0.00 in
11:12 27.7 °F 10.5 °F 30.19 in NW 3.5 mph 5.8 mph 48 % 0.00 in
11:17 27.5 °F 8.9 °F 30.19 in WNW 2.9 mph 5.8 mph 45 % 0.00 in
11:22 27.3 °F 8.7 °F 30.18 in West 3.9 mph 6.9 mph 45 % 0.00 in
11:27 27.1 °F 9.0 °F 30.18 in WSW 1.3 mph 3.0 mph 46 % 0.00 in
11:32 27.4 °F 9.8 °F 30.18 in West 3.1 mph 7.0 mph 47 % 0.00 in
11:37 27.5 °F 8.9 °F 30.18 in WSW 3.6 mph 5.8 mph 45 % 0.00 in
11:42 27.6 °F 9.5 °F 30.18 in WSW 3.0 mph 4.6 mph 46 % 0.00 in
11:47 27.6 °F 9.0 °F 30.17 in West 5.3 mph 6.9 mph 45 % 0.00 in
11:53 27.4 °F 8.8 °F 30.17 in WNW 2.5 mph 5.8 mph 45 % 0.00 in
11:58 27.4 °F 9.3 °F 30.16 in West 4.9 mph 6.9 mph 46 % 0.00 in
12:03 26.9 °F 8.4 °F 30.17 in West 0.8 mph 2.3 mph 45 % 0.00 in
12:08 26.8 °F 9.7 °F 30.16 in SSE 0.4 mph 2.3 mph 48 % 0.00 in
12:13 27.0 °F 8.5 °F 30.15 in West 0.5 mph 2.3 mph 45 % 0.00 in
12:18 27.2 °F 8.1 °F 30.14 in NNE 1.2 mph 4.6 mph 44 % 0.00 in
12:28 27.7 °F 9.6 °F 30.14 in SW 1.3 mph 4.0 mph 46 % 0.00 in
12:33 27.8 °F 9.7 °F 30.14 in NW 2.7 mph 4.6 mph 46 % 0.00 in
12:38 27.7 °F 8.6 °F 30.13 in NNW 2.2 mph 4.6 mph 44 % 0.00 in
12:44 27.7 °F 8.6 °F 30.12 in NW 2.8 mph 4.6 mph 44 % 0.00 in
12:49 27.7 °F 8.1 °F 30.12 in WSW 3.1 mph 4.6 mph 43 % 0.00 in
12:54 27.8 °F 7.6 °F 30.11 in West 2.5 mph 6.0 mph 42 % 0.00 in
12:59 28.0 °F 8.4 °F 30.11 in NW 4.0 mph 6.9 mph 43 % 0.00 in
13:04 28.1 °F 7.9 °F 30.10 in SSW 1.0 mph 2.3 mph 42 % 0.00 in
13:09 28.3 °F 7.6 °F 30.10 in WSW 5.2 mph 9.2 mph 41 % 0.00 in
13:14 28.4 °F 7.7 °F 30.10 in WSW 5.5 mph 6.9 mph 41 % 0.00 in
13:19 28.3 °F 7.0 °F 30.10 in SSW 2.9 mph 3.5 mph 40 % 0.00 in
13:24 28.5 °F 8.3 °F 30.10 in SSW 4.0 mph 6.9 mph 42 % 0.00 in
13:29 28.7 °F 7.9 °F 30.10 in South 3.3 mph 4.6 mph 41 % 0.00 in
13:35 28.5 °F 7.2 °F 30.09 in SSW 2.1 mph 5.0 mph 40 % 0.00 in
13:40 28.4 °F 7.1 °F 30.09 in SSW 3.2 mph 4.6 mph 40 % 0.00 in
13:45 28.4 °F 7.7 °F 30.08 in SSW 2.8 mph 5.0 mph 41 % 0.00 in
13:50 28.2 °F 7.5 °F 30.08 in SSW 4.9 mph 7.0 mph 41 % 0.00 in
14:00 27.6 °F 8.0 °F 30.08 in SSW 3.9 mph 6.9 mph 43 % 0.00 in
14:05 27.6 °F 8.5 °F 30.08 in SSW 1.9 mph 4.6 mph 44 % 0.00 in
14:10 27.6 °F 8.5 °F 30.07 in SW 3.2 mph 6.9 mph 44 % 0.00 in
14:15 27.3 °F 7.7 °F 30.07 in South 6.1 mph 9.2 mph 43 % 0.00 in
14:20 26.9 °F 7.9 °F 30.07 in SSW 0.9 mph 2.3 mph 44 % 0.00 in
14:26 26.8 °F 8.8 °F 30.07 in South 5.5 mph 10.0 mph 46 % 0.00 in
14:31 26.5 °F 8.0 °F 30.07 in SSW 3.7 mph 5.8 mph 45 % 0.00 in
14:36 26.4 °F 8.9 °F 30.07 in SSW 4.0 mph 5.8 mph 47 % 0.00 in
14:41 26.3 °F 9.2 °F 30.07 in South 3.7 mph 6.9 mph 48 % 0.00 in
14:46 26.3 °F 9.2 °F 30.06 in SE 1.7 mph 4.0 mph 48 % 0.00 in
14:51 26.3 °F 9.7 °F 30.06 in SE 4.9 mph 7.0 mph 49 % 0.00 in
14:56 26.3 °F 9.7 °F 30.06 in SSW 5.5 mph 11.0 mph 49 % 0.00 in
15:01 26.2 °F 9.6 °F 30.06 in SSW 2.8 mph 5.0 mph 49 % 0.00 in
15:06 26.2 °F 8.7 °F 30.06 in SSW 4.9 mph 9.2 mph 47 % 0.00 in
15:11 26.0 °F 8.5 °F 30.05 in SSW 4.9 mph 8.1 mph 47 % 0.00 in
15:17 25.9 °F 9.3 °F 30.05 in SSW 4.7 mph 9.2 mph 49 % 0.00 in
15:22 25.7 °F 8.7 °F 30.05 in SSE 0.9 mph 3.5 mph 48 % 0.00 in
15:27 25.7 °F 9.6 °F 30.05 in SW 3.9 mph 7.0 mph 50 % 0.00 in
15:32 25.7 °F 9.6 °F 30.05 in SW 1.9 mph 4.6 mph 50 % 0.00 in
15:37 25.7 °F 10.0 °F 30.05 in SSW 4.4 mph 6.9 mph 51 % 0.00 in
15:42 25.6 °F 10.0 °F 30.04 in SSW 6.0 mph 9.2 mph 51 % 0.00 in
15:52 25.3 °F 9.7 °F 30.04 in SE 3.1 mph 5.8 mph 51 % 0.00 in
15:57 25.2 °F 10.0 °F 30.03 in South 2.6 mph 4.6 mph 52 % 0.00 in
16:02 25.1 °F 9.9 °F 30.03 in South 2.5 mph 3.5 mph 52 % 0.00 in
16:08 25.0 °F 9.8 °F 30.03 in SSW 3.4 mph 5.8 mph 52 % 0.00 in
16:13 25.0 °F 9.8 °F 30.03 in South 2.0 mph 4.0 mph 52 % 0.00 in
16:18 24.9 °F 10.2 °F 30.03 in SSE 2.8 mph 5.8 mph 53 % 0.00 in
16:23 24.8 °F 10.1 °F 30.03 in SSE 1.5 mph 4.6 mph 53 % 0.00 in
16:28 24.8 °F 10.5 °F 30.03 in South 1.9 mph 5.8 mph 54 % 0.00 in
16:33 24.8 °F 10.9 °F 30.03 in SSW 3.1 mph 4.6 mph 55 % 0.00 in
16:38 24.7 °F 10.8 °F 30.02 in SSW 1.1 mph 3.5 mph 55 % 0.00 in
16:43 24.6 °F 10.7 °F 30.02 in South 1.3 mph 3.5 mph 55 % 0.00 in
16:48 24.5 °F 11.0 °F 30.02 in South 5.5 mph 9.2 mph 56 % 0.00 in
16:53 24.5 °F 11.4 °F 30.02 in SSE 3.2 mph 4.6 mph 57 % 0.00 in
16:59 24.3 °F 11.2 °F 30.01 in SSW 2.5 mph 3.5 mph 57 % 0.00 in
17:09 24.3 °F 11.6 °F 30.01 in SSE 3.0 mph 5.0 mph 58 % 0.00 in
17:14 24.3 °F 12.0 °F 30.01 in SSW 1.0 mph 3.5 mph 59 % 0.00 in
17:19 24.3 °F 12.0 °F 30.01 in South 2.5 mph 5.8 mph 59 % 0.00 in
17:24 24.2 °F 11.5 °F 30.01 in SSW 2.1 mph 3.5 mph 58 % 0.00 in
17:29 24.2 °F 11.5 °F 30.01 in South 0.9 mph 2.3 mph 58 % 0.00 in
17:34 24.2 °F 11.9 °F 30.01 in South 2.3 mph 3.5 mph 59 % 0.00 in
17:39 24.2 °F 12.3 °F 30.00 in South 0.6 mph 3.5 mph 60 % 0.00 in
17:44 24.2 °F 12.3 °F 30.00 in South 0.1 mph 1.2 mph 60 % 0.00 in
17:50 24.2 °F 12.3 °F 30.00 in Calm     60 % 0.00 in
17:55 24.2 °F 12.3 °F 30.00 in South 0.9 mph 1.2 mph 60 % 0.00 in
18:00 24.2 °F 11.9 °F 30.00 in Calm   1.2 mph 59 % 0.00 in
18:05 24.2 °F 12.3 °F 30.00 in Calm     60 % 0.00 in
18:10 24.2 °F 12.3 °F 30.00 in South 0.3 mph 2.0 mph 60 % 0.00 in
18:15 24.2 °F 12.7 °F 30.00 in Calm     61 % 0.00 in
18:20 24.2 °F 11.9 °F 30.00 in WSW 3.6 mph 4.6 mph 59 % 0.00 in
18:25 24.2 °F 11.5 °F 29.99 in SSW 0.3 mph 2.0 mph 58 % 0.00 in
18:30 24.2 °F 11.5 °F 29.99 in SSW 2.2 mph 4.0 mph 58 % 0.00 in
18:41 24.3 °F 10.8 °F 29.99 in SW 5.3 mph 5.3 mph 56 % 0.00 in
18:46 24.3 °F 10.8 °F 29.99 in SW 3.1 mph 5.8 mph 56 % 0.00 in
18:51 24.4 °F 10.9 °F 29.98 in SW 1.7 mph 3.5 mph 56 % 0.00 in
18:56 24.4 °F 10.9 °F 29.98 in SSW 1.3 mph 3.5 mph 56 % 0.00 in
19:01 24.4 °F 10.9 °F 29.98 in SW 2.8 mph 5.0 mph 56 % 0.00 in
19:06 24.4 °F 11.7 °F 29.98 in WSW 3.5 mph 4.6 mph 58 % 0.00 in
19:11 24.4 °F 12.1 °F 29.97 in WSW 1.6 mph 4.6 mph 59 % 0.00 in
19:16 24.3 °F 12.0 °F 29.97 in South 3.0 mph 8.1 mph 59 % 0.00 in
19:21 24.2 °F 11.9 °F 29.97 in SW 2.4 mph 7.0 mph 59 % 0.00 in
19:26 24.2 °F 11.9 °F 29.97 in SSW 3.7 mph 4.6 mph 59 % 0.00 in
19:32 24.2 °F 11.9 °F 29.97 in SSW 2.4 mph 3.5 mph 59 % 0.00 in
19:37 24.1 °F 11.8 °F 29.97 in SW 2.1 mph 3.5 mph 59 % 0.00 in
19:42 24.1 °F 11.8 °F 29.96 in SW 2.2 mph 4.0 mph 59 % 0.00 in
19:47 24.1 °F 11.8 °F 29.96 in West 1.0 mph 2.3 mph 59 % 0.00 in
19:52 24.1 °F 11.8 °F 29.96 in SW 0.5 mph 2.3 mph 59 % 0.00 in
19:57 24.0 °F 11.7 °F 29.95 in SSW 1.9 mph 3.5 mph 59 % 0.00 in
20:02 24.0 °F 11.7 °F 29.95 in SW 2.1 mph 3.5 mph 59 % 0.00 in
20:07 24.0 °F 11.3 °F 29.95 in SW 1.9 mph 3.5 mph 58 % 0.00 in
20:12 24.0 °F 11.3 °F 29.95 in Calm   2.3 mph 58 % 0.00 in
20:17 24.0 °F 11.3 °F 29.95 in SW 0.6 mph 2.3 mph 58 % 0.00 in
20:28 24.0 °F 11.3 °F 29.95 in SW 2.9 mph 4.6 mph 58 % 0.00 in
20:33 24.1 °F 11.4 °F 29.94 in SW 3.5 mph 5.0 mph 58 % 0.00 in
20:38 24.1 °F 11.4 °F 29.94 in SW 3.1 mph 5.8 mph 58 % 0.00 in
20:43 24.1 °F 11.0 °F 29.94 in SW 5.5 mph 9.2 mph 57 % 0.00 in
20:53 24.1 °F 11.4 °F 29.94 in WSW 5.8 mph 8.1 mph 58 % 0.00 in
20:58 24.1 °F 11.4 °F 29.94 in WSW 3.5 mph 5.8 mph 58 % 0.00 in
21:03 24.1 °F 11.4 °F 29.94 in West 2.1 mph 4.0 mph 58 % 0.00 in
21:08 24.1 °F 11.4 °F 29.93 in SW 3.4 mph 6.9 mph 58 % 0.00 in
21:14 24.1 °F 12.6 °F 29.93 in SW 6.6 mph 8.1 mph 61 % 0.00 in
21:19 24.1 °F 14.0 °F 29.93 in SW 3.0 mph 6.9 mph 65 % 0.00 in
21:29 23.9 °F 14.2 °F 29.93 in SW 2.4 mph 6.0 mph 66 % 0.00 in
21:34 23.9 °F 14.2 °F 29.93 in WSW 3.6 mph 6.9 mph 66 % 0.00 in
21:39 23.8 °F 14.4 °F 29.93 in SW 2.3 mph 5.0 mph 67 % 0.00 in
21:44 23.8 °F 14.4 °F 29.93 in South 2.5 mph 5.8 mph 67 % 0.00 in
21:49 23.8 °F 14.8 °F 29.93 in SSW 2.3 mph 4.6 mph 68 % 0.00 in
21:54 23.7 °F 14.7 °F 29.92 in SW 3.7 mph 6.9 mph 68 % 0.00 in
21:59 23.6 °F 14.6 °F 29.92 in South 1.6 mph 3.5 mph 68 % 0.00 in
22:05 23.5 °F 14.5 °F 29.92 in SW 2.4 mph 6.0 mph 68 % 0.00 in
22:10 23.4 °F 14.4 °F 29.92 in SSW 0.4 mph 3.5 mph 68 % 0.00 in
22:15 23.4 °F 14.4 °F 29.92 in SSW 1.4 mph 4.0 mph 68 % 0.00 in
22:20 23.3 °F 14.3 °F 29.91 in SSW 0.3 mph 1.2 mph 68 % 0.00 in
22:25 23.3 °F 14.6 °F 29.91 in SW 1.4 mph 3.5 mph 69 % 0.00 in
22:30 23.2 °F 14.5 °F 29.91 in SSW 1.1 mph 3.5 mph 69 % 0.00 in
22:35 23.1 °F 14.4 °F 29.91 in SSW 1.7 mph 3.5 mph 69 % 0.00 in
22:45 23.0 °F 14.3 °F 29.91 in SSW 2.8 mph 4.6 mph 69 % 0.00 in
22:50 22.9 °F 14.2 °F 29.91 in SSW 1.3 mph 3.5 mph 69 % 0.00 in
22:56 22.9 °F 14.2 °F 29.91 in SSW 1.9 mph 6.9 mph 69 % 0.00 in
23:01 22.8 °F 14.1 °F 29.91 in SSW 2.9 mph 3.5 mph 69 % 0.00 in
23:06 22.7 °F 14.1 °F 29.91 in SW 1.8 mph 4.6 mph 69 % 0.00 in
23:11 22.7 °F 13.7 °F 29.91 in SSW 0.2 mph 1.2 mph 68 % 0.00 in
23:16 22.7 °F 13.7 °F 29.91 in SW 2.6 mph 4.6 mph 68 % 0.00 in
23:21 22.6 °F 13.3 °F 29.91 in WNW 1.6 mph 3.5 mph 67 % 0.00 in
23:26 22.6 °F 12.9 °F 29.91 in West 0.7 mph 5.0 mph 66 % 0.00 in
23:31 22.6 °F 12.2 °F 29.91 in WNW 2.8 mph 6.9 mph 64 % 0.00 in
23:41 22.9 °F 12.2 °F 29.91 in West 3.8 mph 9.2 mph 63 % 0.00 in
23:47 23.1 °F 12.0 °F 29.91 in West 5.0 mph 11.5 mph 62 % 0.00 in
23:52 23.3 °F 11.8 °F 29.91 in WSW 1.8 mph 8.1 mph 61 % 0.00 in
23:57 23.4 °F 11.5 °F 29.90 in West 6.0 mph 10.4 mph 60 % 0.00 in
Crab Meadow Weather
Compliments of Weather Underground - 2.75 mb

Script developed by  Jim McMurry - jmcmurry@mwt.net Adapted for the template by  Wim van der Kuil - Leuven-Template.eu

Extremes: The longest period without measurable rainfall in the United States was 767 days at Bagdad, California.